sensor_id;sensor_type;location;lat;lon;timestamp;temperature;humidity
12386;DHT22;6257;57.634;18.310;2023-05-01T00:02:13;4.40;99.90
12386;DHT22;6257;57.634;18.310;2023-05-01T00:04:40;4.40;99.90
12386;DHT22;6257;57.634;18.310;2023-05-01T00:07:08;4.40;99.90
12386;DHT22;6257;57.634;18.310;2023-05-01T00:09:35;4.40;99.90
12386;DHT22;6257;57.634;18.310;2023-05-01T00:12:03;4.30;99.90
12386;DHT22;6257;57.634;18.310;2023-05-01T00:14:31;4.30;99.90
12386;DHT22;6257;57.634;18.310;2023-05-01T00:16:58;4.20;99.90
12386;DHT22;6257;57.634;18.310;2023-05-01T00:19:25;4.10;99.90
12386;DHT22;6257;57.634;18.310;2023-05-01T00:21:52;4.00;99.90
12386;DHT22;6257;57.634;18.310;2023-05-01T00:24:19;4.00;99.90
12386;DHT22;6257;57.634;18.310;2023-05-01T00:26:46;3.90;99.90
12386;DHT22;6257;57.634;18.310;2023-05-01T00:29:13;3.80;99.90
12386;DHT22;6257;57.634;18.310;2023-05-01T00:31:43;3.70;99.90
12386;DHT22;6257;57.634;18.310;2023-05-01T00:34:10;3.60;99.90
12386;DHT22;6257;57.634;18.310;2023-05-01T00:36:37;3.60;99.90
12386;DHT22;6257;57.634;18.310;2023-05-01T00:39:04;3.50;99.90
12386;DHT22;6257;57.634;18.310;2023-05-01T00:41:32;3.50;99.90
12386;DHT22;6257;57.634;18.310;2023-05-01T00:43:59;3.50;99.90
12386;DHT22;6257;57.634;18.310;2023-05-01T00:46:27;3.50;99.90
12386;DHT22;6257;57.634;18.310;2023-05-01T00:48:57;3.60;99.90
12386;DHT22;6257;57.634;18.310;2023-05-01T00:58:49;3.90;99.90
12386;DHT22;6257;57.634;18.310;2023-05-01T01:01:18;3.90;99.90
12386;DHT22;6257;57.634;18.310;2023-05-01T01:03:46;4.00;99.90
12386;DHT22;6257;57.634;18.310;2023-05-01T01:06:18;4.10;99.90
12386;DHT22;6257;57.634;18.310;2023-05-01T01:08:54;4.10;99.90
12386;DHT22;6257;57.634;18.310;2023-05-01T01:11:29;4.00;99.90
12386;DHT22;6257;57.634;18.310;2023-05-01T01:14:05;4.00;99.90
12386;DHT22;6257;57.634;18.310;2023-05-01T01:16:40;4.00;99.90
12386;DHT22;6257;57.634;18.310;2023-05-01T01:19:26;4.00;99.90
12386;DHT22;6257;57.634;18.310;2023-05-01T01:22:05;3.90;99.90
12386;DHT22;6257;57.634;18.310;2023-05-01T01:24:55;3.80;99.90
12386;DHT22;6257;57.634;18.310;2023-05-01T01:33:53;4.10;99.90
12386;DHT22;6257;57.634;18.310;2023-05-01T01:36:29;4.10;99.90
12386;DHT22;6257;57.634;18.310;2023-05-01T01:39:04;4.00;99.90
12386;DHT22;6257;57.634;18.310;2023-05-01T01:41:34;3.80;99.90
12386;DHT22;6257;57.634;18.310;2023-05-01T01:44:05;3.70;99.90
12386;DHT22;6257;57.634;18.310;2023-05-01T01:46:38;3.60;99.90
12386;DHT22;6257;57.634;18.310;2023-05-01T01:49:14;3.50;99.90
12386;DHT22;6257;57.634;18.310;2023-05-01T01:51:43;3.50;99.90
12386;DHT22;6257;57.634;18.310;2023-05-01T01:54:13;3.50;99.90
12386;DHT22;6257;57.634;18.310;2023-05-01T01:56:42;3.50;99.90
12386;DHT22;6257;57.634;18.310;2023-05-01T02:01:39;3.60;99.90
12386;DHT22;6257;57.634;18.310;2023-05-01T02:04:10;3.70;99.90
12386;DHT22;6257;57.634;18.310;2023-05-01T02:06:40;3.70;99.90
12386;DHT22;6257;57.634;18.310;2023-05-01T02:09:08;3.70;99.90
12386;DHT22;6257;57.634;18.310;2023-05-01T02:11:37;3.70;99.90
12386;DHT22;6257;57.634;18.310;2023-05-01T02:14:06;3.80;99.90
12386;DHT22;6257;57.634;18.310;2023-05-01T02:16:33;3.90;99.90
12386;DHT22;6257;57.634;18.310;2023-05-01T02:19:03;3.90;99.90
12386;DHT22;6257;57.634;18.310;2023-05-01T02:21:33;3.90;99.90
12386;DHT22;6257;57.634;18.310;2023-05-01T02:24:01;3.90;99.90
12386;DHT22;6257;57.634;18.310;2023-05-01T02:26:35;3.90;99.90
12386;DHT22;6257;57.634;18.310;2023-05-01T02:29:04;3.70;99.90
12386;DHT22;6257;57.634;18.310;2023-05-01T02:31:32;3.60;99.90
12386;DHT22;6257;57.634;18.310;2023-05-01T02:33:59;3.50;99.90
12386;DHT22;6257;57.634;18.310;2023-05-01T02:36:26;3.40;99.90
12386;DHT22;6257;57.634;18.310;2023-05-01T02:38:55;3.30;99.90
12386;DHT22;6257;57.634;18.310;2023-05-01T02:41:23;3.20;99.90
12386;DHT22;6257;57.634;18.310;2023-05-01T02:43:54;3.10;99.90
12386;DHT22;6257;57.634;18.310;2023-05-01T02:46:24;3.00;99.90
12386;DHT22;6257;57.634;18.310;2023-05-01T02:48:53;2.90;99.90
12386;DHT22;6257;57.634;18.310;2023-05-01T02:51:21;2.80;99.90
12386;DHT22;6257;57.634;18.310;2023-05-01T02:53:49;2.80;99.90
12386;DHT22;6257;57.634;18.310;2023-05-01T02:56:18;2.70;99.90
12386;DHT22;6257;57.634;18.310;2023-05-01T02:58:47;2.60;99.90
12386;DHT22;6257;57.634;18.310;2023-05-01T03:03:42;2.50;99.90
12386;DHT22;6257;57.634;18.310;2023-05-01T03:06:09;2.50;99.90
12386;DHT22;6257;57.634;18.310;2023-05-01T03:08:36;2.40;99.90
12386;DHT22;6257;57.634;18.310;2023-05-01T03:11:04;2.40;99.90
12386;DHT22;6257;57.634;18.310;2023-05-01T03:16:00;2.30;99.90
12386;DHT22;6257;57.634;18.310;2023-05-01T03:18:29;2.30;99.90
12386;DHT22;6257;57.634;18.310;2023-05-01T03:20:56;2.40;99.90
12386;DHT22;6257;57.634;18.310;2023-05-01T03:25:50;2.40;99.90
12386;DHT22;6257;57.634;18.310;2023-05-01T03:33:18;2.60;99.90
12386;DHT22;6257;57.634;18.310;2023-05-01T03:35:45;2.70;99.90
12386;DHT22;6257;57.634;18.310;2023-05-01T03:38:12;2.80;99.90
12386;DHT22;6257;57.634;18.310;2023-05-01T03:40:39;2.90;99.90
12386;DHT22;6257;57.634;18.310;2023-05-01T03:45:33;3.20;99.90
12386;DHT22;6257;57.634;18.310;2023-05-01T03:52:56;3.40;99.90
12386;DHT22;6257;57.634;18.310;2023-05-01T03:55:23;3.50;99.90
12386;DHT22;6257;57.634;18.310;2023-05-01T04:00:18;3.60;99.90
12386;DHT22;6257;57.634;18.310;2023-05-01T04:02:46;3.70;99.90
12386;DHT22;6257;57.634;18.310;2023-05-01T04:05:14;3.80;99.90
12386;DHT22;6257;57.634;18.310;2023-05-01T04:07:42;3.80;99.90
12386;DHT22;6257;57.634;18.310;2023-05-01T04:10:09;3.90;99.90
12386;DHT22;6257;57.634;18.310;2023-05-01T04:12:36;3.90;99.90
12386;DHT22;6257;57.634;18.310;2023-05-01T04:15:04;3.60;99.90
12386;DHT22;6257;57.634;18.310;2023-05-01T04:17:31;4.00;99.90
12386;DHT22;6257;57.634;18.310;2023-05-01T04:19:58;4.00;99.90
12386;DHT22;6257;57.634;18.310;2023-05-01T04:22:27;4.10;99.90
12386;DHT22;6257;57.634;18.310;2023-05-01T04:24:54;4.10;99.90
12386;DHT22;6257;57.634;18.310;2023-05-01T04:27:21;4.20;99.90
12386;DHT22;6257;57.634;18.310;2023-05-01T04:29:49;4.20;99.90
12386;DHT22;6257;57.634;18.310;2023-05-01T04:32:16;4.30;99.90
12386;DHT22;6257;57.634;18.310;2023-05-01T04:34:44;4.50;99.90
12386;DHT22;6257;57.634;18.310;2023-05-01T04:37:11;4.60;99.90
12386;DHT22;6257;57.634;18.310;2023-05-01T04:39:40;4.90;99.90
12386;DHT22;6257;57.634;18.310;2023-05-01T04:42:07;5.20;99.90
12386;DHT22;6257;57.634;18.310;2023-05-01T04:44:34;5.40;99.90
12386;DHT22;6257;57.634;18.310;2023-05-01T04:47:02;5.40;99.90
12386;DHT22;6257;57.634;18.310;2023-05-01T04:51:56;5.40;99.90
12386;DHT22;6257;57.634;18.310;2023-05-01T05:01:48;6.50;99.90
12386;DHT22;6257;57.634;18.310;2023-05-01T05:04:15;6.60;99.90
12386;DHT22;6257;57.634;18.310;2023-05-01T05:06:42;6.60;99.90
12386;DHT22;6257;57.634;18.310;2023-05-01T05:11:37;6.30;99.90
12386;DHT22;6257;57.634;18.310;2023-05-01T05:14:06;6.30;99.90
12386;DHT22;6257;57.634;18.310;2023-05-01T05:16:33;6.40;99.90
12386;DHT22;6257;57.634;18.310;2023-05-01T05:19:00;6.40;99.90
12386;DHT22;6257;57.634;18.310;2023-05-01T05:21:28;6.50;99.90
12386;DHT22;6257;57.634;18.310;2023-05-01T05:23:56;6.60;99.90
12386;DHT22;6257;57.634;18.310;2023-05-01T05:26:23;6.80;99.90
12386;DHT22;6257;57.634;18.310;2023-05-01T05:28:51;6.90;99.90
12386;DHT22;6257;57.634;18.310;2023-05-01T05:31:20;7.00;99.90
12386;DHT22;6257;57.634;18.310;2023-05-01T05:33:48;7.00;99.90
12386;DHT22;6257;57.634;18.310;2023-05-01T05:36:15;7.10;99.90
12386;DHT22;6257;57.634;18.310;2023-05-01T05:38:42;7.10;99.90
12386;DHT22;6257;57.634;18.310;2023-05-01T05:41:09;7.00;99.90
12386;DHT22;6257;57.634;18.310;2023-05-01T05:43:36;7.00;99.90
12386;DHT22;6257;57.634;18.310;2023-05-01T05:46:03;7.00;99.90
12386;DHT22;6257;57.634;18.310;2023-05-01T05:53:27;7.40;99.90
12386;DHT22;6257;57.634;18.310;2023-05-01T05:55:55;7.50;99.90
12386;DHT22;6257;57.634;18.310;2023-05-01T05:58:22;8.00;99.90
12386;DHT22;6257;57.634;18.310;2023-05-01T06:00:50;7.60;99.90
12386;DHT22;6257;57.634;18.310;2023-05-01T06:03:18;7.70;99.90
12386;DHT22;6257;57.634;18.310;2023-05-01T06:05:46;7.90;99.90
12386;DHT22;6257;57.634;18.310;2023-05-01T06:08:14;8.00;99.90
12386;DHT22;6257;57.634;18.310;2023-05-01T06:10:43;7.80;99.90
12386;DHT22;6257;57.634;18.310;2023-05-01T06:13:11;7.70;99.90
12386;DHT22;6257;57.634;18.310;2023-05-01T06:15:38;7.70;99.90
12386;DHT22;6257;57.634;18.310;2023-05-01T06:18:06;7.50;99.90
12386;DHT22;6257;57.634;18.310;2023-05-01T06:20:33;7.30;99.90
12386;DHT22;6257;57.634;18.310;2023-05-01T06:23:02;7.40;99.90
12386;DHT22;6257;57.634;18.310;2023-05-01T06:25:29;7.80;99.90
12386;DHT22;6257;57.634;18.310;2023-05-01T06:27:56;7.70;99.90
12386;DHT22;6257;57.634;18.310;2023-05-01T06:30:23;7.90;99.90
12386;DHT22;6257;57.634;18.310;2023-05-01T06:32:50;7.80;99.90
12386;DHT22;6257;57.634;18.310;2023-05-01T06:35:17;7.90;99.90
12386;DHT22;6257;57.634;18.310;2023-05-01T06:37:45;7.90;99.90
12386;DHT22;6257;57.634;18.310;2023-05-01T06:42:41;7.60;99.90
12386;DHT22;6257;57.634;18.310;2023-05-01T06:45:08;7.50;99.90
12386;DHT22;6257;57.634;18.310;2023-05-01T06:47:35;7.30;99.90
12386;DHT22;6257;57.634;18.310;2023-05-01T06:50:02;7.30;99.90
12386;DHT22;6257;57.634;18.310;2023-05-01T06:52:30;7.20;99.90
12386;DHT22;6257;57.634;18.310;2023-05-01T06:54:57;7.30;99.90
12386;DHT22;6257;57.634;18.310;2023-05-01T06:57:25;7.40;99.90
12386;DHT22;6257;57.634;18.310;2023-05-01T07:02:20;7.40;99.90
12386;DHT22;6257;57.634;18.310;2023-05-01T07:04:47;7.20;99.90
12386;DHT22;6257;57.634;18.310;2023-05-01T07:07:14;7.30;99.90
12386;DHT22;6257;57.634;18.310;2023-05-01T07:09:41;7.20;99.90
12386;DHT22;6257;57.634;18.310;2023-05-01T07:12:08;7.10;99.90
12386;DHT22;6257;57.634;18.310;2023-05-01T07:17:04;7.30;99.90
12386;DHT22;6257;57.634;18.310;2023-05-01T07:19:31;7.30;99.90
12386;DHT22;6257;57.634;18.310;2023-05-01T07:21:58;7.20;99.90
12386;DHT22;6257;57.634;18.310;2023-05-01T07:26:53;7.30;99.90
12386;DHT22;6257;57.634;18.310;2023-05-01T07:29:21;7.60;99.90
12386;DHT22;6257;57.634;18.310;2023-05-01T07:34:16;8.00;99.90
12386;DHT22;6257;57.634;18.310;2023-05-01T07:36:44;8.10;99.90
12386;DHT22;6257;57.634;18.310;2023-05-01T07:39:11;8.00;99.90
12386;DHT22;6257;57.634;18.310;2023-05-01T07:41:39;8.10;99.90
12386;DHT22;6257;57.634;18.310;2023-05-01T07:46:33;8.10;99.90
12386;DHT22;6257;57.634;18.310;2023-05-01T07:51:30;8.40;99.90
12386;DHT22;6257;57.634;18.310;2023-05-01T07:53:57;8.60;99.90
12386;DHT22;6257;57.634;18.310;2023-05-01T07:56:28;8.30;99.90
12386;DHT22;6257;57.634;18.310;2023-05-01T07:58:55;8.40;99.90
12386;DHT22;6257;57.634;18.310;2023-05-01T08:01:22;8.60;99.90
12386;DHT22;6257;57.634;18.310;2023-05-01T08:03:50;8.60;99.90
12386;DHT22;6257;57.634;18.310;2023-05-01T08:06:18;8.50;99.90
12386;DHT22;6257;57.634;18.310;2023-05-01T08:08:45;8.20;99.90
12386;DHT22;6257;57.634;18.310;2023-05-01T08:11:12;8.30;99.90
12386;DHT22;6257;57.634;18.310;2023-05-01T08:13:39;8.20;99.90
12386;DHT22;6257;57.634;18.310;2023-05-01T08:16:06;8.40;99.90
12386;DHT22;6257;57.634;18.310;2023-05-01T08:18:33;8.60;99.90
12386;DHT22;6257;57.634;18.310;2023-05-01T08:21:00;8.50;99.90
12386;DHT22;6257;57.634;18.310;2023-05-01T08:23:29;8.60;99.90
12386;DHT22;6257;57.634;18.310;2023-05-01T08:25:56;8.90;99.90
12386;DHT22;6257;57.634;18.310;2023-05-01T08:28:23;9.30;99.90
12386;DHT22;6257;57.634;18.310;2023-05-01T08:30:50;9.40;99.90
12386;DHT22;6257;57.634;18.310;2023-05-01T08:33:18;9.00;99.90
12386;DHT22;6257;57.634;18.310;2023-05-01T08:35:45;9.10;99.90
12386;DHT22;6257;57.634;18.310;2023-05-01T08:38:13;9.30;99.90
12386;DHT22;6257;57.634;18.310;2023-05-01T08:40:46;9.30;99.90
12386;DHT22;6257;57.634;18.310;2023-05-01T08:43:16;9.20;99.90
12386;DHT22;6257;57.634;18.310;2023-05-01T08:45:43;9.20;99.90
12386;DHT22;6257;57.634;18.310;2023-05-01T08:48:13;9.40;99.90
12386;DHT22;6257;57.634;18.310;2023-05-01T08:50:44;9.50;99.90
12386;DHT22;6257;57.634;18.310;2023-05-01T08:53:12;9.60;99.90
12386;DHT22;6257;57.634;18.310;2023-05-01T08:55:44;9.10;99.90
12386;DHT22;6257;57.634;18.310;2023-05-01T08:58:12;8.80;99.90
12386;DHT22;6257;57.634;18.310;2023-05-01T09:00:40;8.50;99.90
12386;DHT22;6257;57.634;18.310;2023-05-01T09:03:10;8.10;99.90
12386;DHT22;6257;57.634;18.310;2023-05-01T09:05:38;8.20;99.90
12386;DHT22;6257;57.634;18.310;2023-05-01T09:08:05;8.30;99.90
12386;DHT22;6257;57.634;18.310;2023-05-01T09:10:32;8.20;99.90
12386;DHT22;6257;57.634;18.310;2023-05-01T09:13:04;8.90;99.90
12386;DHT22;6257;57.634;18.310;2023-05-01T09:15:33;8.10;99.90
12386;DHT22;6257;57.634;18.310;2023-05-01T09:18:00;8.00;99.90
12386;DHT22;6257;57.634;18.310;2023-05-01T09:20:28;8.00;99.90
12386;DHT22;6257;57.634;18.310;2023-05-01T09:22:56;8.00;99.90
12386;DHT22;6257;57.634;18.310;2023-05-01T09:27:51;7.90;99.90
12386;DHT22;6257;57.634;18.310;2023-05-01T09:30:33;7.90;99.90
12386;DHT22;6257;57.634;18.310;2023-05-01T09:33:05;7.70;99.90
12386;DHT22;6257;57.634;18.310;2023-05-01T09:35:50;7.60;99.90
12386;DHT22;6257;57.634;18.310;2023-05-01T09:38:19;7.60;99.90
12386;DHT22;6257;57.634;18.310;2023-05-01T09:40:47;7.70;99.90
12386;DHT22;6257;57.634;18.310;2023-05-01T09:43:23;7.90;99.90
12386;DHT22;6257;57.634;18.310;2023-05-01T09:46:14;8.10;99.90
12386;DHT22;6257;57.634;18.310;2023-05-01T09:48:51;8.30;99.90
12386;DHT22;6257;57.634;18.310;2023-05-01T09:51:21;8.60;99.90
12386;DHT22;6257;57.634;18.310;2023-05-01T09:53:49;9.00;99.90
12386;DHT22;6257;57.634;18.310;2023-05-01T09:56:17;9.40;99.90
12386;DHT22;6257;57.634;18.310;2023-05-01T09:58:44;9.60;99.90
12386;DHT22;6257;57.634;18.310;2023-05-01T10:03:42;10.00;99.90
12386;DHT22;6257;57.634;18.310;2023-05-01T10:06:10;10.10;99.90
12386;DHT22;6257;57.634;18.310;2023-05-01T10:08:44;10.10;99.90
12386;DHT22;6257;57.634;18.310;2023-05-01T10:11:12;10.10;99.90
12386;DHT22;6257;57.634;18.310;2023-05-01T10:13:39;10.10;99.90
12386;DHT22;6257;57.634;18.310;2023-05-01T10:16:06;10.10;99.90
12386;DHT22;6257;57.634;18.310;2023-05-01T10:21:04;10.40;99.90
12386;DHT22;6257;57.634;18.310;2023-05-01T10:23:31;10.80;99.90
12386;DHT22;6257;57.634;18.310;2023-05-01T10:26:00;10.80;99.90
12386;DHT22;6257;57.634;18.310;2023-05-01T10:28:29;10.90;99.90
12386;DHT22;6257;57.634;18.310;2023-05-01T10:30:57;10.90;99.90
12386;DHT22;6257;57.634;18.310;2023-05-01T10:33:24;11.20;99.90
12386;DHT22;6257;57.634;18.310;2023-05-01T10:35:56;11.00;99.90
12386;DHT22;6257;57.634;18.310;2023-05-01T10:38:29;11.00;99.90
12386;DHT22;6257;57.634;18.310;2023-05-01T10:40:58;11.00;99.90
12386;DHT22;6257;57.634;18.310;2023-05-01T10:43:26;11.00;99.90
12386;DHT22;6257;57.634;18.310;2023-05-01T10:46:25;11.10;99.90
12386;DHT22;6257;57.634;18.310;2023-05-01T10:48:56;11.00;99.90
12386;DHT22;6257;57.634;18.310;2023-05-01T10:51:25;11.00;99.90
12386;DHT22;6257;57.634;18.310;2023-05-01T10:54:21;11.00;99.90
12386;DHT22;6257;57.634;18.310;2023-05-01T10:56:49;10.80;99.90
12386;DHT22;6257;57.634;18.310;2023-05-01T10:59:16;10.70;99.90
12386;DHT22;6257;57.634;18.310;2023-05-01T11:01:44;10.60;99.90
12386;DHT22;6257;57.634;18.310;2023-05-01T11:04:49;10.60;99.90
12386;DHT22;6257;57.634;18.310;2023-05-01T11:07:21;10.80;99.90
12386;DHT22;6257;57.634;18.310;2023-05-01T11:09:49;10.70;99.90
12386;DHT22;6257;57.634;18.310;2023-05-01T11:12:48;10.70;99.90
12386;DHT22;6257;57.634;18.310;2023-05-01T11:15:28;10.80;99.90
12386;DHT22;6257;57.634;18.310;2023-05-01T11:17:56;10.80;99.90
12386;DHT22;6257;57.634;18.310;2023-05-01T11:20:48;10.70;99.90
12386;DHT22;6257;57.634;18.310;2023-05-01T11:23:21;10.70;99.90
12386;DHT22;6257;57.634;18.310;2023-05-01T11:26:02;10.70;99.90
12386;DHT22;6257;57.634;18.310;2023-05-01T11:28:30;10.70;99.90
12386;DHT22;6257;57.634;18.310;2023-05-01T11:30:58;10.80;99.90
12386;DHT22;6257;57.634;18.310;2023-05-01T11:33:26;11.00;99.90
12386;DHT22;6257;57.634;18.310;2023-05-01T11:36:00;11.10;99.90
12386;DHT22;6257;57.634;18.310;2023-05-01T11:38:29;11.40;99.90
12386;DHT22;6257;57.634;18.310;2023-05-01T11:41:02;11.50;99.90
12386;DHT22;6257;57.634;18.310;2023-05-01T11:43:30;11.40;99.90
12386;DHT22;6257;57.634;18.310;2023-05-01T11:45:57;11.50;99.90
12386;DHT22;6257;57.634;18.310;2023-05-01T11:48:30;11.50;99.90
12386;DHT22;6257;57.634;18.310;2023-05-01T11:50:58;11.30;99.90
12386;DHT22;6257;57.634;18.310;2023-05-01T11:53:25;11.10;99.90
12386;DHT22;6257;57.634;18.310;2023-05-01T11:58:31;11.00;99.90
12386;DHT22;6257;57.634;18.310;2023-05-01T12:00:59;11.20;99.90
12386;DHT22;6257;57.634;18.310;2023-05-01T12:03:26;11.40;99.90
12386;DHT22;6257;57.634;18.310;2023-05-01T12:05:54;11.40;99.90
12386;DHT22;6257;57.634;18.310;2023-05-01T12:08:21;11.20;99.90
12386;DHT22;6257;57.634;18.310;2023-05-01T12:10:50;11.10;99.90
12386;DHT22;6257;57.634;18.310;2023-05-01T12:13:19;11.10;99.90
12386;DHT22;6257;57.634;18.310;2023-05-01T12:15:48;11.20;99.90
12386;DHT22;6257;57.634;18.310;2023-05-01T12:18:17;11.40;99.90
12386;DHT22;6257;57.634;18.310;2023-05-01T12:20:47;11.60;99.90
12386;DHT22;6257;57.634;18.310;2023-05-01T12:23:17;11.70;99.90
12386;DHT22;6257;57.634;18.310;2023-05-01T12:25:45;11.80;99.90
12386;DHT22;6257;57.634;18.310;2023-05-01T12:28:13;11.80;99.90
12386;DHT22;6257;57.634;18.310;2023-05-01T12:33:12;11.80;99.90
12386;DHT22;6257;57.634;18.310;2023-05-01T12:35:40;11.70;99.90
12386;DHT22;6257;57.634;18.310;2023-05-01T12:38:11;11.20;99.90
12386;DHT22;6257;57.634;18.310;2023-05-01T12:40:39;10.80;99.90
12386;DHT22;6257;57.634;18.310;2023-05-01T12:43:06;10.70;99.90
12386;DHT22;6257;57.634;18.310;2023-05-01T12:45:38;10.60;99.90
12386;DHT22;6257;57.634;18.310;2023-05-01T12:53:06;10.60;99.90
12386;DHT22;6257;57.634;18.310;2023-05-01T12:55:42;10.60;99.90
12386;DHT22;6257;57.634;18.310;2023-05-01T13:00:46;10.40;99.90
12386;DHT22;6257;57.634;18.310;2023-05-01T13:03:22;10.30;99.90
12386;DHT22;6257;57.634;18.310;2023-05-01T13:05:51;10.40;99.90
12386;DHT22;6257;57.634;18.310;2023-05-01T13:08:24;10.30;99.90
12386;DHT22;6257;57.634;18.310;2023-05-01T13:13:24;10.40;99.90
12386;DHT22;6257;57.634;18.310;2023-05-01T13:15:52;10.50;99.90
12386;DHT22;6257;57.634;18.310;2023-05-01T13:18:21;10.70;99.90
12386;DHT22;6257;57.634;18.310;2023-05-01T13:20:48;10.80;99.90
12386;DHT22;6257;57.634;18.310;2023-05-01T13:23:15;10.90;99.90
12386;DHT22;6257;57.634;18.310;2023-05-01T13:25:43;11.10;99.90
12386;DHT22;6257;57.634;18.310;2023-05-01T13:28:16;11.20;99.90
12386;DHT22;6257;57.634;18.310;2023-05-01T13:30:44;11.40;99.90
12386;DHT22;6257;57.634;18.310;2023-05-01T13:33:11;11.60;99.90
12386;DHT22;6257;57.634;18.310;2023-05-01T13:38:10;11.40;99.90
12386;DHT22;6257;57.634;18.310;2023-05-01T13:40:39;11.50;99.90
12386;DHT22;6257;57.634;18.310;2023-05-01T13:43:12;11.40;99.90
12386;DHT22;6257;57.634;18.310;2023-05-01T13:45:40;11.40;99.90
12386;DHT22;6257;57.634;18.310;2023-05-01T13:48:08;11.30;99.90
12386;DHT22;6257;57.634;18.310;2023-05-01T13:50:35;11.20;99.90
12386;DHT22;6257;57.634;18.310;2023-05-01T13:55:33;11.10;99.90
12386;DHT22;6257;57.634;18.310;2023-05-01T13:58:01;11.10;99.90
12386;DHT22;6257;57.634;18.310;2023-05-01T14:00:28;11.00;99.90
12386;DHT22;6257;57.634;18.310;2023-05-01T14:02:55;11.00;99.90
12386;DHT22;6257;57.634;18.310;2023-05-01T14:05:26;11.00;99.90
12386;DHT22;6257;57.634;18.310;2023-05-01T14:07:54;11.00;99.90
12386;DHT22;6257;57.634;18.310;2023-05-01T14:10:25;10.90;99.90
12386;DHT22;6257;57.634;18.310;2023-05-01T14:12:54;10.90;99.90
12386;DHT22;6257;57.634;18.310;2023-05-01T14:15:22;10.90;99.90
12386;DHT22;6257;57.634;18.310;2023-05-01T14:17:50;11.00;99.90
12386;DHT22;6257;57.634;18.310;2023-05-01T14:20:17;11.10;99.90
12386;DHT22;6257;57.634;18.310;2023-05-01T14:22:45;11.10;99.90
12386;DHT22;6257;57.634;18.310;2023-05-01T14:25:23;10.90;99.90
12386;DHT22;6257;57.634;18.310;2023-05-01T14:27:51;10.60;99.90
12386;DHT22;6257;57.634;18.310;2023-05-01T14:30:29;10.50;99.90
12386;DHT22;6257;57.634;18.310;2023-05-01T14:33:00;10.40;99.90
12386;DHT22;6257;57.634;18.310;2023-05-01T14:35:27;10.20;99.90
12386;DHT22;6257;57.634;18.310;2023-05-01T14:37:55;10.30;99.90
12386;DHT22;6257;57.634;18.310;2023-05-01T14:40:29;10.20;99.90
12386;DHT22;6257;57.634;18.310;2023-05-01T14:42:57;10.10;99.90
12386;DHT22;6257;57.634;18.310;2023-05-01T14:45:24;10.20;99.90
12386;DHT22;6257;57.634;18.310;2023-05-01T14:47:51;10.10;99.90
12386;DHT22;6257;57.634;18.310;2023-05-01T14:50:19;10.10;99.90
12386;DHT22;6257;57.634;18.310;2023-05-01T14:52:51;10.10;99.90
12386;DHT22;6257;57.634;18.310;2023-05-01T14:55:23;10.10;99.90
12386;DHT22;6257;57.634;18.310;2023-05-01T15:00:20;10.00;99.90
12386;DHT22;6257;57.634;18.310;2023-05-01T15:05:15;10.10;99.90
12386;DHT22;6257;57.634;18.310;2023-05-01T15:07:42;10.10;99.90
12386;DHT22;6257;57.634;18.310;2023-05-01T15:10:10;10.10;99.90
12386;DHT22;6257;57.634;18.310;2023-05-01T15:12:37;10.10;99.90
12386;DHT22;6257;57.634;18.310;2023-05-01T15:15:07;10.20;99.90
12386;DHT22;6257;57.634;18.310;2023-05-01T15:17:35;10.20;99.90
12386;DHT22;6257;57.634;18.310;2023-05-01T15:20:02;10.20;99.90
12386;DHT22;6257;57.634;18.310;2023-05-01T15:22:29;10.10;99.90
12386;DHT22;6257;57.634;18.310;2023-05-01T15:24:56;10.10;99.90
12386;DHT22;6257;57.634;18.310;2023-05-01T15:27:23;10.20;99.90
12386;DHT22;6257;57.634;18.310;2023-05-01T15:29:50;10.20;99.90
12386;DHT22;6257;57.634;18.310;2023-05-01T15:34:46;9.90;99.90
12386;DHT22;6257;57.634;18.310;2023-05-01T15:37:19;9.90;99.90
12386;DHT22;6257;57.634;18.310;2023-05-01T15:39:46;9.90;99.90
12386;DHT22;6257;57.634;18.310;2023-05-01T15:42:13;9.90;99.90
12386;DHT22;6257;57.634;18.310;2023-05-01T15:44:40;9.90;99.90
12386;DHT22;6257;57.634;18.310;2023-05-01T15:47:07;9.80;99.90
12386;DHT22;6257;57.634;18.310;2023-05-01T15:52:03;9.50;99.90
12386;DHT22;6257;57.634;18.310;2023-05-01T15:54:31;9.50;99.90
12386;DHT22;6257;57.634;18.310;2023-05-01T15:56:59;9.40;99.90
12386;DHT22;6257;57.634;18.310;2023-05-01T15:59:27;9.30;99.90
12386;DHT22;6257;57.634;18.310;2023-05-01T16:01:55;9.30;99.90
12386;DHT22;6257;57.634;18.310;2023-05-01T16:04:22;9.20;99.90
12386;DHT22;6257;57.634;18.310;2023-05-01T16:09:18;9.10;99.90
12386;DHT22;6257;57.634;18.310;2023-05-01T16:11:45;9.10;99.90
12386;DHT22;6257;57.634;18.310;2023-05-01T16:14:14;9.00;99.90
12386;DHT22;6257;57.634;18.310;2023-05-01T16:16:42;8.90;99.90
12386;DHT22;6257;57.634;18.310;2023-05-01T16:19:11;8.80;99.90
12386;DHT22;6257;57.634;18.310;2023-05-01T16:21:38;8.80;99.90
12386;DHT22;6257;57.634;18.310;2023-05-01T16:26:34;8.70;99.90
12386;DHT22;6257;57.634;18.310;2023-05-01T16:29:04;8.50;99.90
12386;DHT22;6257;57.634;18.310;2023-05-01T16:31:33;8.50;99.90
12386;DHT22;6257;57.634;18.310;2023-05-01T16:36:33;8.30;99.90
12386;DHT22;6257;57.634;18.310;2023-05-01T16:39:01;8.30;99.90
12386;DHT22;6257;57.634;18.310;2023-05-01T16:41:29;8.30;99.90
12386;DHT22;6257;57.634;18.310;2023-05-01T16:43:57;8.20;99.90
12386;DHT22;6257;57.634;18.310;2023-05-01T16:46:25;8.20;99.90
12386;DHT22;6257;57.634;18.310;2023-05-01T16:48:52;8.10;99.90
12386;DHT22;6257;57.634;18.310;2023-05-01T16:51:19;8.10;99.90
12386;DHT22;6257;57.634;18.310;2023-05-01T16:56:14;8.10;99.90
12386;DHT22;6257;57.634;18.310;2023-05-01T16:58:42;8.00;99.90
12386;DHT22;6257;57.634;18.310;2023-05-01T17:01:09;8.00;99.90
12386;DHT22;6257;57.634;18.310;2023-05-01T17:03:37;7.90;99.90
12386;DHT22;6257;57.634;18.310;2023-05-01T17:06:04;7.90;99.90
12386;DHT22;6257;57.634;18.310;2023-05-01T17:08:31;7.90;99.90
12386;DHT22;6257;57.634;18.310;2023-05-01T17:10:58;7.80;99.90
12386;DHT22;6257;57.634;18.310;2023-05-01T17:13:25;7.80;99.90
12386;DHT22;6257;57.634;18.310;2023-05-01T17:15:54;7.80;99.90
12386;DHT22;6257;57.634;18.310;2023-05-01T17:18:20;7.80;99.90
12386;DHT22;6257;57.634;18.310;2023-05-01T17:20:47;7.70;99.90
12386;DHT22;6257;57.634;18.310;2023-05-01T17:23:15;7.70;99.90
12386;DHT22;6257;57.634;18.310;2023-05-01T17:25:42;7.60;99.90
12386;DHT22;6257;57.634;18.310;2023-05-01T17:28:10;7.60;99.90
12386;DHT22;6257;57.634;18.310;2023-05-01T17:30:37;7.60;99.90
12386;DHT22;6257;57.634;18.310;2023-05-01T17:35:33;7.50;99.90
12386;DHT22;6257;57.634;18.310;2023-05-01T17:38:00;7.50;99.90
12386;DHT22;6257;57.634;18.310;2023-05-01T17:40:27;7.50;99.90
12386;DHT22;6257;57.634;18.310;2023-05-01T17:42:55;7.50;99.90
12386;DHT22;6257;57.634;18.310;2023-05-01T17:45:22;7.40;99.90
12386;DHT22;6257;57.634;18.310;2023-05-01T17:47:49;7.40;99.90
12386;DHT22;6257;57.634;18.310;2023-05-01T17:50:20;7.40;99.90
12386;DHT22;6257;57.634;18.310;2023-05-01T17:52:48;7.40;99.90
12386;DHT22;6257;57.634;18.310;2023-05-01T17:55:15;7.40;99.90
12386;DHT22;6257;57.634;18.310;2023-05-01T17:57:42;7.40;99.90